Goblesville, Indiana
Current Conditions -  °F | °C
As of 4:15 PM on Thursday 23 Oct 2014 (Local Time) from KHHG Reporting Station
Clear Clear  
Wind Chill: 58°   Ceiling: Unl
Heat Index: 58°   Visibility: 10mi
Dew Point: 40°   Wind: 3mph
Humidity: 53%   Direction: 250°WSW
Pressure: 30.15"   Gusts: NA
Location:  40.9238°N, 85.5001°W
Report Text: KHHG 232015Z AUTO 25003KT 10SM CLR 14/05 A3015 RMK AO2 T01420046
Loading
Personal Weather Stations






























Interactive Weather Map
Tropical Storm Tracking
New forecast layout! Learn more

10-Day Weather Forecast

Advertisements
Track Severe Weather on mobile